createdAt,value
2022-12-19T00:07:29.631Z,-0.82
2022-12-19T00:17:29.822Z,-0.79
2022-12-19T00:27:29.623Z,-0.75
2022-12-19T00:37:29.758Z,-0.75
2022-12-19T00:47:29.647Z,-0.75
2022-12-19T00:57:29.810Z,-0.72
2022-12-19T01:07:29.657Z,-0.71
2022-12-19T01:17:29.781Z,-0.71
2022-12-19T01:27:29.687Z,-0.78
2022-12-19T01:37:29.795Z,-0.84
2022-12-19T01:47:29.699Z,-0.86
2022-12-19T01:57:29.812Z,-0.91
2022-12-19T02:07:29.665Z,-0.96
2022-12-19T02:17:29.822Z,-0.98
2022-12-19T02:27:29.696Z,-0.98
2022-12-19T02:37:29.818Z,-0.95
2022-12-19T02:47:29.727Z,-0.93
2022-12-19T02:57:29.834Z,-0.96
2022-12-19T03:07:29.742Z,-1.01
2022-12-19T03:17:29.858Z,-0.97
2022-12-19T03:27:29.782Z,-0.94
2022-12-19T03:37:29.908Z,-0.94
2022-12-19T03:47:29.790Z,-0.97
2022-12-19T03:57:29.925Z,-0.98
2022-12-19T04:07:29.825Z,-1.03
2022-12-19T04:17:29.930Z,-1.08
2022-12-19T04:27:29.822Z,-1.1
2022-12-19T04:37:29.949Z,-1.19
2022-12-19T04:47:29.891Z,-1.34
2022-12-19T04:57:29.959Z,-1.47
2022-12-19T05:07:29.846Z,-1.44
2022-12-19T05:17:29.995Z,-1.57
2022-12-19T05:27:29.865Z,-1.6
2022-12-19T05:37:30.042Z,-1.55
2022-12-19T05:47:29.891Z,-1.5
2022-12-19T05:57:29.995Z,-1.45
2022-12-19T06:07:29.900Z,-1.41
2022-12-19T06:17:30.058Z,-1.41
2022-12-19T06:27:29.920Z,-1.35
2022-12-19T06:37:30.068Z,-1.34
2022-12-19T06:47:29.955Z,-1.28
2022-12-19T06:57:30.058Z,-1.28
2022-12-19T07:07:29.968Z,-1.25
2022-12-19T07:17:30.056Z,-1.13
2022-12-19T07:27:35.334Z,-0.9
2022-12-19T07:37:30.069Z,-0.82
2022-12-19T07:47:29.957Z,-0.67
2022-12-19T07:57:30.069Z,-0.61
2022-12-19T08:07:29.959Z,-0.58
2022-12-19T08:17:30.205Z,-0.43
2022-12-19T08:27:29.983Z,-0.19
2022-12-19T08:37:30.099Z,-0.06
2022-12-19T08:47:30.007Z,-0.03
2022-12-19T08:57:30.123Z,0
2022-12-19T09:07:29.995Z,0.12
2022-12-19T09:17:30.128Z,0.36
2022-12-19T09:27:29.990Z,0.64
2022-12-19T09:37:30.169Z,1.17
2022-12-19T09:47:30.004Z,1.55
2022-12-19T09:57:30.128Z,1.57
2022-12-19T10:07:53.233Z,1.45
2022-12-19T10:17:30.177Z,1.49
2022-12-19T10:27:30.022Z,1.62
2022-12-19T10:37:40.801Z,1.78
2022-12-19T10:47:30.091Z,1.71
2022-12-19T10:57:30.201Z,1.94
2022-12-19T11:07:30.073Z,1.97
2022-12-19T11:21:31.133Z,2
2022-12-19T11:30:24.190Z,1.86
2022-12-19T11:37:30.216Z,1.67
2022-12-19T11:47:30.070Z,1.62
2022-12-19T11:57:30.205Z,1.92
2022-12-19T12:08:10.720Z,2.05
2022-12-19T12:21:53.307Z,1.9
2022-12-19T12:31:33.404Z,1.97
2022-12-19T12:47:30.083Z,1.79
2022-12-19T12:57:30.182Z,1.8
2022-12-19T13:07:30.117Z,1.67
2022-12-19T13:17:30.143Z,1.53
2022-12-19T13:27:30.111Z,1.64
2022-12-19T13:39:53.806Z,1.65
2022-12-19T13:47:30.137Z,1.39
2022-12-19T13:57:30.270Z,1.24
2022-12-19T14:07:36.288Z,1.1
2022-12-19T14:17:30.190Z,0.96
2022-12-19T14:28:16.626Z,0.78
2022-12-19T14:37:31.850Z,0.57
2022-12-19T14:49:58.456Z,0.36
2022-12-19T14:58:33.256Z,0.25
2022-12-19T15:07:30.177Z,0.11
2022-12-19T15:17:30.203Z,0
2022-12-19T15:27:30.191Z,-0.07
2022-12-19T15:37:30.222Z,-0.13
2022-12-19T15:47:30.196Z,-0.15
2022-12-19T15:57:30.259Z,-0.23
2022-12-19T16:07:30.192Z,-0.44
2022-12-19T16:17:30.266Z,-0.53
2022-12-19T16:27:30.200Z,-0.67
2022-12-19T16:37:32.308Z,-1
2022-12-19T16:47:30.297Z,-1.08
2022-12-19T16:57:30.250Z,-1.17
2022-12-19T17:07:30.256Z,-1.27
2022-12-19T17:17:30.260Z,-1.26
2022-12-19T17:27:30.237Z,-1.34
2022-12-19T17:37:30.268Z,-1.34
2022-12-19T17:47:30.277Z,-1.19
2022-12-19T17:57:30.294Z,-1.2
2022-12-19T18:07:30.278Z,-1.15
2022-12-19T18:17:30.304Z,-1.2
2022-12-19T18:27:30.269Z,-1.33
2022-12-19T18:37:30.320Z,-1.5
2022-12-19T18:47:30.305Z,-1.55
2022-12-19T18:57:30.327Z,-1.52
2022-12-19T19:07:30.318Z,-1.39
2022-12-19T19:17:30.359Z,-1.41
2022-12-19T19:27:30.312Z,-1.3
2022-12-19T19:37:30.372Z,-1.39
2022-12-19T19:47:30.339Z,-1.59
2022-12-19T19:57:30.381Z,-1.78
2022-12-19T20:07:30.368Z,-1.91
2022-12-19T20:17:30.423Z,-1.94
2022-12-19T20:27:30.377Z,-2.12
2022-12-19T20:37:30.428Z,-2.45
2022-12-19T20:47:30.413Z,-2.33
2022-12-19T20:57:30.502Z,-2.31
2022-12-19T21:07:30.389Z,-2.37
2022-12-19T21:17:30.472Z,-2.47
2022-12-19T21:27:30.406Z,-2.61
2022-12-19T21:37:30.726Z,-2.64
2022-12-19T21:47:30.464Z,-2.68
2022-12-19T21:57:30.538Z,-2.86
2022-12-19T22:07:30.478Z,-2.92
2022-12-19T22:17:30.506Z,-3.02
2022-12-19T22:27:30.489Z,-3.1
2022-12-19T22:37:30.661Z,-2.98
2022-12-19T22:47:30.484Z,-3.14
2022-12-19T22:57:30.537Z,-3.25
2022-12-19T23:07:30.533Z,-3.42
2022-12-19T23:17:30.575Z,-3.65
2022-12-19T23:27:30.579Z,-3.69
2022-12-19T23:37:30.610Z,-3.52
2022-12-19T23:47:30.584Z,-3.65
2022-12-19T23:57:30.626Z,-3.92
